Time;durP1;ratioP1;P1;durP2;ratioP2;P2;SDS_P1;SDS_P2;PMS_P1;PMS_P2;Temp;Humidity;BMP_temperature;BMP_pressure;BME280_temperature;BME280_humidity;BME280_pressure;Samples;Min_cycle;Max_cycle;Signal;HPM_P1;HPM_P2
2023/12/18 00:02:24;;;;;;;2.90;1.80;;;;;;;3.94;100.00;102325.99;104584;1256;67528;-54
2023/12/18 00:04:52;;;;;;;2.30;1.80;;;;;;;3.96;100.00;102322.84;104636;1260;72003;-52
2023/12/18 00:07:19;;;;;;;1.90;1.50;;;;;;;3.97;100.00;102321.45;104588;1257;60164;-58
2023/12/18 00:09:46;;;;;;;1.70;1.50;;;;;;;3.98;100.00;102320.05;104649;1257;60046;-51
2023/12/18 00:12:14;;;;;;;1.60;1.10;;;;;;;3.99;100.00;102316.69;104648;1257;71673;-52
2023/12/18 00:14:41;;;;;;;1.30;1.20;;;;;;;4.00;100.00;102314.04;104671;1257;67580;-55
2023/12/18 00:17:09;;;;;;;1.50;1.10;;;;;;;4.00;100.00;102316.51;104669;1257;71540;-54
2023/12/18 00:19:36;;;;;;;1.40;1.00;;;;;;;4.00;100.00;102309.05;104550;1263;59797;-54
2023/12/18 00:22:04;;;;;;;1.20;0.70;;;;;;;4.00;100.00;102306.04;104780;1257;59758;-56
2023/12/18 00:24:31;;;;;;;1.50;0.90;;;;;;;4.01;100.00;102294.33;104775;1257;71860;-56
2023/12/18 00:26:59;;;;;;;1.00;0.90;;;;;;;4.03;100.00;102292.23;105853;1257;65960;-54
2023/12/18 00:29:27;;;;;;;0.80;0.80;;;;;;;4.06;100.00;102298.33;106536;1260;70155;-52
2023/12/18 00:31:54;;;;;;;2.30;0.80;;;;;;;4.07;100.00;102296.96;104774;1256;59638;-54
2023/12/18 00:34:22;;;;;;;1.40;1.10;;;;;;;4.09;100.00;102302.64;104736;1254;60216;-52
2023/12/18 00:36:49;;;;;;;1.30;1.20;;;;;;;4.10;100.00;102306.04;104640;1260;73431;-57
2023/12/18 00:39:17;;;;;;;1.70;1.30;;;;;;;4.09;100.00;102308.69;104612;1257;67442;-55
2023/12/18 00:41:45;;;;;;;1.80;1.10;;;;;;;4.07;100.00;102303.00;105675;1256;72621;-51
2023/12/18 00:44:12;;;;;;;1.80;1.00;;;;;;;4.06;100.00;102297.47;104665;1261;60939;-52
2023/12/18 00:46:40;;;;;;;1.20;0.90;;;;;;;4.04;100.00;102286.95;104716;1259;59624;-52
2023/12/18 00:49:07;;;;;;;1.20;0.90;;;;;;;4.05;100.00;102280.37;105225;1259;71737;-51
2023/12/18 00:51:35;;;;;;;1.00;0.90;;;;;;;4.05;100.00;102284.48;105719;1260;65792;-55
2023/12/18 00:54:03;;;;;;;1.10;0.90;;;;;;;4.07;100.00;102288.25;106198;1256;73149;-51
2023/12/18 00:56:30;;;;;;;1.00;0.80;;;;;;;4.09;100.00;102295.37;104539;1259;59658;-54
2023/12/18 00:58:57;;;;;;;1.40;1.10;;;;;;;4.11;100.00;102295.95;104590;1257;59746;-53
2023/12/18 01:01:25;;;;;;;1.30;1.00;;;;;;;4.12;100.00;102301.83;104570;1260;73131;-50
2023/12/18 01:03:52;;;;;;;1.70;1.50;;;;;;;4.13;100.00;102307.90;104727;1257;66877;-51
2023/12/18 01:06:20;;;;;;;1.50;1.20;;;;;;;4.14;100.00;102306.13;104638;1260;71433;-52
2023/12/18 01:08:48;;;;;;;2.00;1.30;;;;;;;4.11;100.00;102300.74;104592;1257;60920;-52
2023/12/18 01:11:15;;;;;;;1.30;1.00;;;;;;;4.09;100.00;102288.27;104693;1256;60996;-52
2023/12/18 01:13:42;;;;;;;1.10;0.90;;;;;;;4.08;100.00;102288.07;104399;1259;73599;-51
2023/12/18 01:16:10;;;;;;;1.50;1.30;;;;;;;4.09;100.00;102281.51;104584;1256;67156;-56
2023/12/18 01:18:37;;;;;;;1.50;1.10;;;;;;;4.09;100.00;102281.34;104540;1254;72457;-51
2023/12/18 01:21:05;;;;;;;1.50;1.20;;;;;;;4.09;100.00;102278.31;104753;1261;60481;-52
2023/12/18 01:23:32;;;;;;;1.60;1.30;;;;;;;4.11;100.00;102287.77;104619;1260;59732;-54
2023/12/18 01:26:00;;;;;;;1.90;1.70;;;;;;;4.12;100.00;102279.98;104704;1256;72959;-55
2023/12/18 01:28:27;;;;;;;1.90;1.70;;;;;;;4.13;100.00;102271.10;104751;1260;68347;-52
2023/12/18 01:30:54;;;;;;;4.00;2.70;;;;;;;4.13;100.00;102273.42;104743;1259;72618;-53
2023/12/18 01:33:22;;;;;;;2.40;1.80;;;;;;;4.13;100.00;102268.08;107410;1257;59853;-57
2023/12/18 01:35:50;;;;;;;2.80;1.90;;;;;;;4.13;100.00;102257.24;104637;1260;59676;-53
2023/12/18 01:38:17;;;;;;;2.30;1.90;;;;;;;4.13;100.00;102250.13;104681;1260;73699;-50
2023/12/18 01:40:44;;;;;;;1.70;1.50;;;;;;;4.13;100.00;102258.67;104613;1256;66799;-52
2023/12/18 01:43:27;;;;;;;2.20;1.60;;;;;;;4.14;100.00;102264.02;104646;1257;70452;-54
2023/12/18 01:45:59;;;;;;;2.70;1.80;;;;;;;4.14;100.00;102271.85;104511;1256;59737;-53
2023/12/18 01:48:26;;;;;;;3.90;2.60;;;;;;;4.14;100.00;102257.63;104489;1257;59589;-56
2023/12/18 01:50:55;;;;;;;2.80;2.40;;;;;;;4.13;100.00;102245.89;106938;1257;73394;-56
2023/12/18 01:53:23;;;;;;;3.60;2.30;;;;;;;4.14;100.00;102226.73;104653;1257;67137;-52
2023/12/18 01:55:50;;;;;;;2.90;2.60;;;;;;;4.14;100.00;102179.95;108566;1256;72480;-57
2023/12/18 01:58:18;;;;;;;2.90;2.00;;;;;;;4.12;100.00;102179.05;108677;1255;60848;-55
2023/12/18 02:00:45;;;;;;;2.70;2.20;;;;;;;4.12;100.00;102183.13;108713;1254;58896;-53
2023/12/18 02:03:15;;;;;;;2.60;2.40;;;;;;;4.12;100.00;102189.35;108661;1256;73570;-55
2023/12/18 02:05:43;;;;;;;3.00;2.20;;;;;;;4.13;100.00;102188.48;108787;1256;66989;-54
2023/12/18 02:08:10;;;;;;;2.90;2.10;;;;;;;4.16;100.00;102189.41;108674;1256;73627;-54
2023/12/18 02:10:38;;;;;;;3.40;2.50;;;;;;;4.17;100.00;102202.95;108664;1255;58865;-53
2023/12/18 02:13:05;;;;;;;2.20;1.90;;;;;;;4.20;100.00;102221.46;108786;1256;60226;-53
2023/12/18 02:15:32;;;;;;;4.40;3.50;;;;;;;4.21;100.00;102219.70;108772;1256;72774;-54
2023/12/18 02:18:00;;;;;;;4.50;4.20;;;;;;;4.22;100.00;102214.39;108877;1256;65482;-54
2023/12/18 02:20:28;;;;;;;4.00;3.70;;;;;;;4.21;100.00;102204.77;108674;1255;72664;-54
2023/12/18 02:22:55;;;;;;;5.30;3.30;;;;;;;4.20;100.00;102199.42;108760;1257;59673;-54
2023/12/18 02:25:22;;;;;;;6.60;3.80;;;;;;;4.18;100.00;102188.73;108842;1255;60001;-53
2023/12/18 02:27:50;;;;;;;3.30;2.80;;;;;;;4.16;100.00;102185.69;108322;1257;73943;-52
2023/12/18 02:30:22;;;;;;;3.70;2.70;;;;;;;4.16;100.00;102184.27;104763;1260;65010;-53
2023/12/18 02:32:50;;;;;;;4.10;3.40;;;;;;;4.16;100.00;102191.56;108638;1256;71865;-55
2023/12/18 02:35:18;;;;;;;4.50;3.20;;;;;;;4.17;100.00;102184.80;104909;1263;60558;-53
2023/12/18 02:37:45;;;;;;;3.80;3.00;;;;;;;4.18;100.00;102186.94;105015;1257;60832;-54
2023/12/18 02:40:13;;;;;;;6.50;4.70;;;;;;;4.19;100.00;102197.45;104542;1256;73923;-55
2023/12/18 02:42:40;;;;;;;5.10;3.80;;;;;;;4.21;100.00;102209.93;104760;1256;65754;-55
2023/12/18 02:45:08;;;;;;;6.60;4.80;;;;;;;4.21;100.00;102218.27;104821;1261;70500;-55
2023/12/18 02:47:36;;;;;;;4.90;4.40;;;;;;;4.21;100.00;102226.98;107785;1259;60922;-55
2023/12/18 02:50:06;;;;;;;5.40;4.70;;;;;;;4.22;100.00;102234.46;104572;1257;60505;-54
2023/12/18 02:52:33;;;;;;;4.10;3.70;;;;;;;4.22;100.00;102232.16;104923;1257;72621;-56
2023/12/18 02:55:01;;;;;;;6.20;4.80;;;;;;;4.21;100.00;102232.52;104795;1259;67510;-56
2023/12/18 02:57:28;;;;;;;6.30;4.70;;;;;;;4.23;100.00;102233.26;104638;1257;71549;-55
2023/12/18 02:59:56;;;;;;;6.60;4.70;;;;;;;4.25;100.00;102232.04;105721;1256;61707;-56
2023/12/18 03:02:23;;;;;;;7.10;4.80;;;;;;;4.26;100.00;102234.36;104582;1256;60381;-56
2023/12/18 03:04:51;;;;;;;6.70;5.10;;;;;;;4.26;100.00;102233.64;104535;1256;74524;-56
2023/12/18 03:07:18;;;;;;;6.40;5.40;;;;;;;4.27;100.00;102230.27;104939;1256;65677;-54
2023/12/18 03:09:46;;;;;;;5.00;4.50;;;;;;;4.25;100.00;102235.95;104556;1259;71787;-56
2023/12/18 03:12:13;;;;;;;5.90;4.40;;;;;;;4.26;100.00;102232.92;106175;1257;61999;-55
2023/12/18 03:14:41;;;;;;;5.40;4.80;;;;;;;4.25;100.00;102233.99;104922;1256;60575;-53
2023/12/18 03:17:08;;;;;;;6.90;4.70;;;;;;;4.25;100.00;102239.16;104737;1260;72894;-55
2023/12/18 03:19:36;;;;;;;7.40;5.00;;;;;;;4.26;100.00;102264.58;104949;1257;67013;-57
2023/12/18 03:22:03;;;;;;;6.90;4.60;;;;;;;4.28;100.00;102269.58;104708;1256;72806;-55
2023/12/18 03:24:31;;;;;;;6.20;4.90;;;;;;;4.29;100.00;102268.73;104629;1261;60680;-54
2023/12/18 03:26:58;;;;;;;9.80;5.80;;;;;;;4.29;100.00;102266.94;104781;1256;60534;-53
2023/12/18 03:29:26;;;;;;;6.30;5.60;;;;;;;4.29;100.00;102266.41;104701;1257;73917;-54
2023/12/18 03:31:53;;;;;;;8.30;5.50;;;;;;;4.28;100.00;102252.00;104617;1259;66810;-55
2023/12/18 03:34:21;;;;;;;8.00;5.40;;;;;;;4.27;100.00;102253.92;104808;1256;74822;-56
2023/12/18 03:36:48;;;;;;;6.60;4.80;;;;;;;4.26;100.00;102250.17;105216;1257;60708;-56
2023/12/18 03:39:16;;;;;;;8.40;5.90;;;;;;;4.26;100.00;102240.04;104761;1255;60489;-55
2023/12/18 03:41:43;;;;;;;8.10;5.50;;;;;;;4.29;100.00;102241.88;104531;1259;74379;-55
2023/12/18 03:44:11;;;;;;;10.00;5.20;;;;;;;4.31;100.00;102248.67;104734;1256;66349;-56
2023/12/18 03:46:38;;;;;;;7.00;5.90;;;;;;;4.33;100.00;102248.02;104687;1260;70503;-55
2023/12/18 03:49:05;;;;;;;7.20;5.50;;;;;;;4.34;100.00;102243.56;104605;1256;60661;-56
2023/12/18 03:51:33;;;;;;;8.90;5.90;;;;;;;4.36;100.00;102243.77;104704;1261;60459;-54
2023/12/18 03:54:00;;;;;;;6.50;5.90;;;;;;;4.36;100.00;102243.42;104658;1257;73877;-56
2023/12/18 03:56:28;;;;;;;8.50;6.30;;;;;;;4.35;100.00;102239.49;104690;1259;66727;-55
2023/12/18 03:58:55;;;;;;;8.30;6.70;;;;;;;4.36;100.00;102236.11;104600;1256;72874;-52
2023/12/18 04:01:23;;;;;;;8.70;6.00;;;;;;;4.35;100.00;102228.11;104765;1259;60963;-55
2023/12/18 04:03:50;;;;;;;7.80;5.10;;;;;;;4.35;100.00;102221.00;104967;1256;60566;-55
2023/12/18 04:06:18;;;;;;;7.40;5.80;;;;;;;4.36;100.00;102222.60;105434;1256;74691;-55
2023/12/18 04:08:45;;;;;;;8.60;5.50;;;;;;;4.36;100.00;102222.27;104432;1259;69288;-55
2023/12/18 04:11:14;;;;;;;7.10;5.10;;;;;;;4.38;100.00;102225.86;104413;1259;72085;-55
2023/12/18 04:13:42;;;;;;;8.10;6.00;;;;;;;4.40;100.00;102227.15;104615;1257;61276;-54
2023/12/18 04:16:10;;;;;;;7.60;5.90;;;;;;;4.41;100.00;102224.50;104844;1256;60831;-56
2023/12/18 04:18:37;;;;;;;10.60;7.00;;;;;;;4.42;100.00;102220.05;104709;1257;72665;-55
2023/12/18 04:21:05;;;;;;;9.50;7.10;;;;;;;4.43;100.00;102226.09;104530;1258;66007;-55
2023/12/18 04:23:32;;;;;;;8.30;6.70;;;;;;;4.42;100.00;102225.21;104660;1261;71025;-55
2023/12/18 04:26:00;;;;;;;8.70;6.40;;;;;;;4.40;100.00;102234.61;104584;1257;60572;-54
2023/12/18 04:28:27;;;;;;;9.60;6.50;;;;;;;4.38;100.00;102236.89;104730;1256;60327;-52
2023/12/18 04:30:55;;;;;;;7.10;5.80;;;;;;;4.37;100.00;102246.63;104754;1256;73897;-55
2023/12/18 04:33:22;;;;;;;8.90;6.60;;;;;;;4.37;100.00;102262.10;104518;1257;66904;-54
2023/12/18 04:35:50;;;;;;;8.60;5.50;;;;;;;4.37;100.00;102254.29;104689;1259;72687;-55
2023/12/18 04:38:17;;;;;;;10.80;7.40;;;;;;;4.38;100.00;102241.67;104355;1259;61230;-55
2023/12/18 04:40:45;;;;;;;11.30;8.20;;;;;;;4.39;100.00;102242.23;104713;1255;60550;-55
2023/12/18 04:43:12;;;;;;;7.80;6.40;;;;;;;4.41;100.00;102240.48;104573;1256;74197;-54
2023/12/18 04:45:39;;;;;;;10.10;7.00;;;;;;;4.42;100.00;102240.67;104675;1256;66006;-55
2023/12/18 04:48:07;;;;;;;12.30;8.30;;;;;;;4.41;100.00;102236.05;105374;1257;71153;-54
2023/12/18 04:50:35;;;;;;;14.80;8.90;;;;;;;4.40;100.00;102232.83;104669;1257;60556;-54
2023/12/18 04:53:03;;;;;;;10.50;8.80;;;;;;;4.39;100.00;102246.32;104754;1256;61023;-55
2023/12/18 04:55:30;;;;;;;13.40;9.70;;;;;;;4.37;100.00;102247.17;104688;1261;72964;-54
2023/12/18 04:57:57;;;;;;;11.90;8.10;;;;;;;4.37;100.00;102233.12;104678;1257;67313;-55
2023/12/18 05:00:25;;;;;;;12.00;7.60;;;;;;;4.37;100.00;102223.52;104720;1259;71481;-54
2023/12/18 05:02:52;;;;;;;11.60;8.40;;;;;;;4.36;100.00;102237.20;104649;1257;60464;-54
2023/12/18 05:05:20;;;;;;;10.90;7.50;;;;;;;4.37;100.00;102246.29;104720;1256;60577;-56
2023/12/18 05:07:48;;;;;;;9.80;7.60;;;;;;;4.40;100.00;102235.49;104667;1257;77338;-56
2023/12/18 05:10:15;;;;;;;12.20;8.40;;;;;;;4.41;100.00;102236.94;104875;1259;66778;-55
2023/12/18 05:12:42;;;;;;;13.10;8.80;;;;;;;4.43;100.00;102244.78;104865;1260;71685;-55
2023/12/18 05:15:11;;;;;;;11.90;8.20;;;;;;;4.45;100.00;102241.42;104561;1257;60539;-56
2023/12/18 05:17:38;;;;;;;10.80;8.30;;;;;;;4.45;100.00;102248.55;104755;1256;60819;-55
2023/12/18 05:20:08;;;;;;;11.70;9.30;;;;;;;4.44;100.00;102249.23;108812;1256;72648;-56
2023/12/18 05:22:36;;;;;;;13.40;8.80;;;;;;;4.43;100.00;102265.20;108888;1254;67514;-56
2023/12/18 05:25:04;;;;;;;12.90;9.30;;;;;;;4.41;100.00;102267.88;108819;1255;70702;-56
2023/12/18 05:27:31;;;;;;;13.70;9.20;;;;;;;4.40;100.00;102268.05;108812;1256;61759;-56
2023/12/18 05:29:59;;;;;;;13.30;8.50;;;;;;;4.41;100.00;102269.64;105051;1257;60553;-55
2023/12/18 05:32:27;;;;;;;14.40;9.70;;;;;;;4.41;100.00;102275.34;104427;1256;73899;-55
2023/12/18 05:34:55;;;;;;;12.30;9.50;;;;;;;4.44;100.00;102282.66;104569;1259;66803;-55
2023/12/18 05:37:22;;;;;;;14.20;9.50;;;;;;;4.46;100.00;102284.11;104443;1256;73198;-55
2023/12/18 05:39:54;;;;;;;13.00;9.70;;;;;;;4.47;100.00;102281.66;104487;1256;60767;-55
2023/12/18 05:42:22;;;;;;;11.90;8.80;;;;;;;4.47;100.00;102282.19;104683;1259;60355;-56
2023/12/18 05:44:49;;;;;;;13.00;10.30;;;;;;;4.45;100.00;102275.92;104644;1254;74667;-56
2023/12/18 05:47:17;;;;;;;13.10;8.80;;;;;;;4.45;100.00;102267.91;104814;1256;65840;-56
2023/12/18 05:49:44;;;;;;;13.40;8.50;;;;;;;4.43;100.00;102265.41;104587;1256;73249;-53
2023/12/18 05:52:12;;;;;;;14.00;8.70;;;;;;;4.43;100.00;102264.34;104628;1258;60537;-55
2023/12/18 05:54:39;;;;;;;14.50;9.40;;;;;;;4.44;100.00;102265.05;104828;1256;60538;-52
2023/12/18 05:57:07;;;;;;;11.40;8.30;;;;;;;4.45;100.00;102264.17;104796;1256;73818;-55
2023/12/18 05:59:35;;;;;;;12.40;8.10;;;;;;;4.45;100.00;102267.39;106141;1257;66004;-54
2023/12/18 06:02:02;;;;;;;14.40;10.20;;;;;;;4.46;100.00;102269.54;104747;1257;71500;-55
2023/12/18 06:04:30;;;;;;;14.60;11.40;;;;;;;4.46;100.00;102276.66;107167;1259;60596;-53
2023/12/18 06:06:57;;;;;;;16.70;12.30;;;;;;;4.46;100.00;102278.80;104447;1256;60464;-55
2023/12/18 06:09:25;;;;;;;15.90;10.90;;;;;;;4.45;100.00;102277.17;104715;1256;72308;-54
2023/12/18 06:11:52;;;;;;;16.30;10.40;;;;;;;4.43;100.00;102279.98;104603;1255;67222;-56
2023/12/18 06:14:20;;;;;;;17.80;13.40;;;;;;;4.41;100.00;102280.86;104808;1259;73579;-55
2023/12/18 06:16:47;;;;;;;17.10;11.70;;;;;;;4.40;100.00;102275.50;104746;1257;61735;-55
2023/12/18 06:19:15;;;;;;;18.90;12.00;;;;;;;4.40;100.00;102274.59;104531;1257;60666;-52
2023/12/18 06:21:43;;;;;;;18.60;11.60;;;;;;;4.41;100.00;102271.24;104613;1259;73925;-56
2023/12/18 06:24:10;;;;;;;16.50;12.30;;;;;;;4.41;100.00;102269.29;104907;1260;67440;-55
2023/12/18 06:26:38;;;;;;;18.90;12.60;;;;;;;4.41;100.00;102267.52;104826;1260;71493;-55
2023/12/18 06:29:05;;;;;;;17.00;12.70;;;;;;;4.43;100.00;102268.95;104753;1259;60613;-56
2023/12/18 06:31:33;;;;;;;19.10;13.70;;;;;;;4.45;100.00;102268.27;104731;1259;60441;-55
2023/12/18 06:34:01;;;;;;;26.00;16.00;;;;;;;4.44;100.00;102272.70;104831;1261;72863;-56
2023/12/18 06:36:29;;;;;;;19.80;13.40;;;;;;;4.42;100.00;102268.78;104702;1256;67200;-55
2023/12/18 06:38:57;;;;;;;21.90;15.20;;;;;;;4.40;100.00;102259.67;104965;1259;72723;-56
2023/12/18 06:41:24;;;;;;;17.50;13.50;;;;;;;4.37;100.00;102252.52;104822;1259;60612;-54
2023/12/18 06:43:52;;;;;;;19.30;12.90;;;;;;;4.36;100.00;102256.22;104829;1260;60907;-55
2023/12/18 06:46:19;;;;;;;22.50;13.40;;;;;;;4.36;100.00;102256.21;104646;1261;73338;-54
2023/12/18 06:48:47;;;;;;;19.50;14.70;;;;;;;4.38;100.00;102255.36;104775;1257;68575;-54
2023/12/18 06:51:15;;;;;;;24.50;15.20;;;;;;;4.40;100.00;102260.55;104554;1257;71491;-54
2023/12/18 06:53:43;;;;;;;27.20;16.40;;;;;;;4.42;100.00;102262.73;104682;1261;60516;-54
2023/12/18 06:56:12;;;;;;;25.80;17.00;;;;;;;4.44;100.00;102267.55;104673;1260;60432;-53
2023/12/18 06:58:39;;;;;;;24.90;15.90;;;;;;;4.45;100.00;102275.56;105437;1259;73022;-54
2023/12/18 07:01:07;;;;;;;26.90;18.20;;;;;;;4.45;100.00;102281.08;104790;1262;66949;-54
2023/12/18 07:03:35;;;;;;;26.70;16.30;;;;;;;4.42;100.00;102284.24;104623;1260;72755;-53
2023/12/18 07:06:03;;;;;;;25.90;17.40;;;;;;;4.40;100.00;102290.08;105075;1256;60513;-54
2023/12/18 07:08:31;;;;;;;25.50;17.00;;;;;;;4.37;100.00;102281.13;104878;1259;60450;-54
2023/12/18 07:10:58;;;;;;;24.70;15.60;;;;;;;4.34;100.00;102280.71;104805;1260;72958;-53
2023/12/18 07:13:26;;;;;;;24.30;15.40;;;;;;;4.34;100.00;102280.55;104616;1256;67039;-54
2023/12/18 07:15:53;;;;;;;24.20;16.60;;;;;;;4.35;100.00;102286.23;104952;1259;72693;-53
2023/12/18 07:18:21;;;;;;;24.00;16.30;;;;;;;4.36;100.00;102287.86;104442;1260;60555;-54
2023/12/18 07:20:49;;;;;;;23.50;15.50;;;;;;;4.38;100.00;102292.88;104845;1261;62483;-53
2023/12/18 07:23:16;;;;;;;22.90;16.50;;;;;;;4.40;100.00;102296.48;104332;1261;72910;-54
2023/12/18 07:25:44;;;;;;;25.60;17.20;;;;;;;4.42;100.00;102299.52;104655;1259;67101;-54
2023/12/18 07:28:11;;;;;;;25.10;18.00;;;;;;;4.43;100.00;102299.88;104729;1257;71430;-53
2023/12/18 07:30:39;;;;;;;27.80;17.20;;;;;;;4.42;100.00;102312.67;104799;1262;60462;-54
2023/12/18 07:33:07;;;;;;;24.70;16.50;;;;;;;4.43;100.00;102328.52;105150;1260;60499;-53
2023/12/18 07:35:35;;;;;;;25.10;16.20;;;;;;;4.43;100.00;102328.86;104619;1257;74776;-54
2023/12/18 07:38:02;;;;;;;26.00;16.00;;;;;;;4.42;100.00;102330.64;104436;1256;65675;-53
2023/12/18 07:40:30;;;;;;;23.70;15.70;;;;;;;4.43;100.00;102336.15;104702;1262;72592;-54
2023/12/18 07:42:57;;;;;;;22.80;15.00;;;;;;;4.45;100.00;102331.38;104817;1257;60765;-52
2023/12/18 07:45:25;;;;;;;25.60;16.00;;;;;;;4.46;100.00;102324.30;108770;1256;59533;-55
2023/12/18 07:47:52;;;;;;;18.20;13.80;;;;;;;4.46;100.00;102324.31;108839;1256;74297;-55
2023/12/18 07:50:20;;;;;;;25.90;16.80;;;;;;;4.48;100.00;102331.46;108847;1256;67403;-55
2023/12/18 07:52:47;;;;;;;24.40;16.90;;;;;;;4.50;100.00;102335.59;108778;1256;72630;-55
2023/12/18 07:55:14;;;;;;;24.40;15.50;;;;;;;4.50;100.00;102338.44;108752;1256;59855;-55
2023/12/18 07:57:42;;;;;;;22.10;15.70;;;;;;;4.49;100.00;102349.27;108781;1256;58343;-54
2023/12/18 08:00:11;;;;;;;23.80;15.40;;;;;;;4.48;100.00;102346.23;108805;1256;72970;-55
2023/12/18 08:02:38;;;;;;;26.30;16.40;;;;;;;4.51;100.00;102347.16;108910;1256;67658;-55
2023/12/18 08:05:06;;;;;;;23.90;15.50;;;;;;;4.54;100.00;102348.08;108795;1256;72243;-55
2023/12/18 08:07:33;;;;;;;25.80;16.50;;;;;;;4.57;100.00;102355.45;108890;1256;59645;-55
2023/12/18 08:10:01;;;;;;;27.10;17.20;;;;;;;4.61;100.00;102359.41;105842;1259;59215;-54
2023/12/18 08:12:28;;;;;;;25.80;17.50;;;;;;;4.62;100.00;102361.75;104796;1257;72651;-54
2023/12/18 08:14:56;;;;;;;23.50;16.70;;;;;;;4.62;100.00;102367.44;108699;1257;65643;-55
2023/12/18 08:17:24;;;;;;;29.20;18.40;;;;;;;4.62;100.00;102369.39;108814;1256;72770;-55
2023/12/18 08:19:51;;;;;;;26.20;17.80;;;;;;;4.60;100.00;102364.73;108754;1257;59687;-55
2023/12/18 08:22:18;;;;;;;28.90;16.70;;;;;;;4.58;100.00;102363.48;108868;1256;60177;-55
2023/12/18 08:24:46;;;;;;;27.00;16.30;;;;;;;4.57;100.00;102364.16;105070;1256;72943;-54
2023/12/18 08:27:14;;;;;;;26.30;16.50;;;;;;;4.57;100.00;102355.98;104623;1259;66090;-53
2023/12/18 08:29:41;;;;;;;24.20;16.70;;;;;;;4.57;100.00;102354.20;104764;1262;73598;-54
2023/12/18 08:32:09;;;;;;;24.40;18.20;;;;;;;4.58;100.00;102353.52;104599;1257;60520;-53
2023/12/18 08:34:36;;;;;;;30.20;19.20;;;;;;;4.60;100.00;102356.90;104591;1256;60119;-54
2023/12/18 08:37:05;;;;;;;26.00;17.20;;;;;;;4.60;100.00;102359.20;104754;1262;75482;-54
2023/12/18 08:39:33;;;;;;;33.90;20.90;;;;;;;4.58;100.00;102358.50;104675;1256;65217;-54
2023/12/18 08:42:01;;;;;;;35.00;20.10;;;;;;;4.56;100.00;102353.84;104501;1257;71598;-53
2023/12/18 08:44:28;;;;;;;33.60;20.90;;;;;;;4.55;100.00;102347.05;104474;1256;60553;-55
2023/12/18 08:46:58;;;;;;;31.90;19.70;;;;;;;4.55;100.00;102350.61;104479;1261;60492;-55
2023/12/18 08:49:25;;;;;;;30.30;18.70;;;;;;;4.53;100.00;102354.83;104567;1256;75440;-54
2023/12/18 08:51:53;;;;;;;30.80;18.90;;;;;;;4.51;100.00;102351.77;104408;1262;65975;-54
2023/12/18 08:54:20;;;;;;;29.20;17.70;;;;;;;4.50;100.00;102354.43;104445;1257;72445;-55
2023/12/18 08:56:50;;;;;;;30.90;18.30;;;;;;;4.51;100.00;102356.05;104621;1257;60840;-54
2023/12/18 08:59:18;;;;;;;33.30;20.00;;;;;;;4.53;100.00;102361.77;104540;1257;62753;-54
2023/12/18 09:01:45;;;;;;;34.90;20.50;;;;;;;4.54;100.00;102360.90;104767;1259;74344;-55
2023/12/18 09:04:14;;;;;;;32.70;21.30;;;;;;;4.55;100.00;102366.96;104623;1257;66092;-55
2023/12/18 09:06:42;;;;;;;36.70;19.80;;;;;;;4.54;100.00;102366.41;104812;1262;72691;-53
2023/12/18 09:09:09;;;;;;;29.20;19.30;;;;;;;4.54;100.00;102373.70;104816;1257;60534;-56
2023/12/18 09:11:37;;;;;;;30.50;19.30;;;;;;;4.53;100.00;102371.73;104715;1261;60492;-56
2023/12/18 09:14:04;;;;;;;29.70;18.30;;;;;;;4.53;100.00;102367.81;104640;1258;74013;-54
2023/12/18 09:16:32;;;;;;;32.50;19.00;;;;;;;4.54;100.00;102367.48;104791;1256;67069;-55
2023/12/18 09:19:01;;;;;;;28.20;17.90;;;;;;;4.56;100.00;102365.92;104757;1256;72840;-55
2023/12/18 09:21:28;;;;;;;30.30;19.60;;;;;;;4.59;100.00;102366.85;104697;1261;60459;-54
2023/12/18 09:23:56;;;;;;;37.50;21.70;;;;;;;4.59;100.00;102362.77;104521;1266;60553;-52
2023/12/18 09:26:23;;;;;;;31.60;19.90;;;;;;;4.59;100.00;102361.54;104787;1262;73895;-53
2023/12/18 09:28:50;;;;;;;27.10;17.60;;;;;;;4.57;100.00;102356.52;104650;1257;65511;-55
2023/12/18 09:31:18;;;;;;;27.20;17.40;;;;;;;4.57;100.00;102360.95;104610;1257;72706;-53
2023/12/18 09:33:46;;;;;;;32.20;17.60;;;;;;;4.56;100.00;102360.77;104920;1257;62168;-54
2023/12/18 09:36:14;;;;;;;23.70;17.10;;;;;;;4.55;100.00;102361.83;104460;1257;60703;-55
2023/12/18 09:38:41;;;;;;;28.40;16.80;;;;;;;4.56;100.00;102360.59;104969;1258;73920;-55
2023/12/18 09:41:09;;;;;;;23.50;15.00;;;;;;;4.57;100.00;102362.39;104768;1259;67417;-54
2023/12/18 09:43:36;;;;;;;22.40;16.40;;;;;;;4.59;100.00;102369.53;104745;1258;73711;-55
2023/12/18 09:46:04;;;;;;;26.70;17.60;;;;;;;4.60;100.00;102366.16;104681;1256;60591;-55
2023/12/18 09:48:32;;;;;;;29.20;17.50;;;;;;;4.62;100.00;102365.65;104761;1259;60709;-54
2023/12/18 09:51:00;;;;;;;27.10;18.00;;;;;;;4.62;100.00;102364.59;104486;1256;71642;-55
2023/12/18 09:53:28;;;;;;;29.10;18.30;;;;;;;4.60;100.00;102367.58;104624;1261;65776;-55
2023/12/18 09:55:55;;;;;;;25.70;17.70;;;;;;;4.59;100.00;102374.52;104684;1260;71439;-55
2023/12/18 09:58:26;;;;;;;28.70;17.20;;;;;;;4.59;100.00;102372.02;104554;1262;60569;-55
2023/12/18 10:00:53;;;;;;;23.20;16.00;;;;;;;4.60;100.00;102375.94;104594;1257;60327;-56
2023/12/18 10:03:21;;;;;;;21.90;15.90;;;;;;;4.63;100.00;102372.61;104649;1260;73258;-55
2023/12/18 10:05:49;;;;;;;23.20;15.50;;;;;;;4.66;100.00;102373.92;104500;1262;67085;-56
2023/12/18 10:08:17;;;;;;;24.20;15.70;;;;;;;4.71;100.00;102382.00;105042;1257;72780;-55
2023/12/18 10:10:45;;;;;;;24.00;15.70;;;;;;;4.74;100.00;102384.38;105626;1257;60478;-55
2023/12/18 10:13:13;;;;;;;24.00;15.00;;;;;;;4.77;100.00;102386.38;104689;1257;60553;-56
2023/12/18 10:15:42;;;;;;;27.00;17.10;;;;;;;4.77;100.00;102392.08;104667;1257;104239;-56
2023/12/18 10:18:49;;;;;;;24.10;16.30;;;;;;;4.72;100.00;102408.70;102111;1290;599942;-54
2023/12/18 10:21:23;;;;;;;23.50;15.00;;;;;;;4.72;100.00;102577.69;105213;1269;59642;-53
2023/12/18 10:23:52;;;;;;;23.20;14.80;;;;;;;4.72;100.00;102558.84;103915;1272;59353;-55
2023/12/18 10:26:20;;;;;;;18.40;13.50;;;;;;;4.71;100.00;102539.27;104727;1270;71031;-54
2023/12/18 10:28:51;;;;;;;20.60;14.40;;;;;;;4.73;100.00;102523.64;104031;1266;67249;-55
2023/12/18 10:31:19;;;;;;;17.80;12.90;;;;;;;4.74;100.00;102521.37;103949;1266;122556;-52
2023/12/18 10:33:46;;;;;;;19.80;14.30;;;;;;;4.75;100.00;102513.73;104194;1262;62162;-53
2023/12/18 10:36:15;;;;;;;20.80;15.10;;;;;;;4.80;100.00;102504.38;104079;1267;59416;-55
2023/12/18 10:38:48;;;;;;;24.20;15.00;;;;;;;4.83;100.00;102504.80;108608;1261;72341;-54
2023/12/18 10:41:23;;;;;;;21.00;14.70;;;;;;;4.84;100.00;102506.77;108776;1254;65792;-55
2023/12/18 10:43:50;;;;;;;23.70;15.70;;;;;;;4.85;100.00;102509.09;108915;1254;72687;-56
2023/12/18 10:46:18;;;;;;;23.50;15.50;;;;;;;4.86;100.00;102500.41;105809;1255;60944;-54
2023/12/18 10:48:48;;;;;;;21.00;13.20;;;;;;;4.86;100.00;102506.08;104543;1254;62143;-55
2023/12/18 10:51:16;;;;;;;20.60;13.90;;;;;;;4.86;100.00;102514.45;108989;1257;71949;-55
2023/12/18 10:53:44;;;;;;;16.40;11.60;;;;;;;4.86;100.00;102520.87;104845;1261;64786;-56
2023/12/18 10:56:11;;;;;;;19.30;12.40;;;;;;;4.88;100.00;102522.15;104772;1264;72715;-54
2023/12/18 10:58:39;;;;;;;17.50;11.90;;;;;;;4.90;100.00;102519.34;104892;1263;59634;-54
2023/12/18 11:01:07;;;;;;;18.60;12.40;;;;;;;4.93;100.00;102517.98;104875;1260;59670;-54
2023/12/18 11:03:36;;;;;;;18.70;13.40;;;;;;;4.95;100.00;102520.86;104951;1255;71948;-54
2023/12/18 11:06:05;;;;;;;18.50;13.70;;;;;;;4.97;100.00;102523.75;105056;1258;65872;-54
2023/12/18 11:08:32;;;;;;;19.10;12.70;;;;;;;4.96;100.00;102522.83;104631;1262;71529;-54
2023/12/18 11:11:01;;;;;;;15.80;11.30;;;;;;;4.93;100.00;102519.23;104590;1264;59748;-54
2023/12/18 11:13:30;;;;;;;13.80;10.70;;;;;;;4.93;100.00;102516.56;104806;1258;60605;-54